Time;durP1;ratioP1;P1;durP2;ratioP2;P2;SDS_P1;SDS_P2;PMS_P1;PMS_P2;Temp;Humidity;BMP_temperature;BMP_pressure;BME280_temperature;BME280_humidity;BME280_pressure;Samples;Min_cycle;Max_cycle;Signal;HPM_P1;HPM_P2
2021/09/05 00:01:58;;;;;;;13.80;8.88;;;16.30;99.90;;;;;;5111282;28;20335;-39
2021/09/05 00:04:24;;;;;;;14.50;9.05;;;16.30;99.90;;;;;;5112928;28;20032;-37
2021/09/05 00:06:50;;;;;;;12.75;8.70;;;16.20;99.90;;;;;;5112066;28;20030;-34
2021/09/05 00:09:15;;;;;;;11.10;8.35;;;16.20;99.90;;;;;;5112344;28;20105;-37
2021/09/05 00:11:41;;;;;;;14.20;8.68;;;16.20;99.90;;;;;;5111863;28;20039;-39
2021/09/05 00:14:09;;;;;;;15.52;9.05;;;16.20;99.90;;;;;;5111941;28;20046;-34
2021/09/05 00:16:35;;;;;;;14.93;8.43;;;16.20;99.90;;;;;;5104390;28;20026;-38
2021/09/05 00:19:00;;;;;;;12.38;8.88;;;16.20;99.90;;;;;;5112256;28;20114;-37
2021/09/05 00:21:26;;;;;;;14.05;8.27;;;16.20;99.90;;;;;;5112590;28;20416;-37
2021/09/05 00:23:52;;;;;;;12.43;8.43;;;16.10;99.90;;;;;;5111648;28;20066;-36
2021/09/05 00:26:17;;;;;;;14.65;9.35;;;16.10;99.90;;;;;;5111752;28;20127;-39
2021/09/05 00:28:46;;;;;;;15.52;9.23;;;16.10;99.90;;;;;;5112131;28;20088;-38
2021/09/05 00:31:14;;;;;;;15.15;8.75;;;16.10;99.90;;;;;;5111767;28;20024;-36
2021/09/05 00:33:40;;;;;;;12.23;8.88;;;16.10;99.90;;;;;;5110621;28;20047;-35
2021/09/05 00:36:05;;;;;;;14.35;8.88;;;16.00;99.90;;;;;;5112320;28;20080;-38
2021/09/05 00:38:31;;;;;;;10.52;7.75;;;16.00;99.90;;;;;;5111288;28;20432;-38
2021/09/05 00:40:56;;;;;;;13.85;9.07;;;16.00;99.90;;;;;;5111553;28;20024;-36
2021/09/05 00:43:22;;;;;;;13.23;9.35;;;16.00;99.90;;;;;;5112019;28;21113;-38
2021/09/05 00:45:50;;;;;;;14.00;8.77;;;15.90;99.90;;;;;;5111111;28;20545;-38
2021/09/05 00:48:15;;;;;;;13.23;9.00;;;15.90;99.90;;;;;;5111645;28;20726;-33
2021/09/05 00:50:42;;;;;;;12.95;8.00;;;15.90;99.90;;;;;;5111051;28;20035;-36
2021/09/05 00:53:08;;;;;;;12.70;8.77;;;15.90;99.90;;;;;;5111075;28;20463;-38
2021/09/05 00:55:38;;;;;;;13.88;8.80;;;15.80;99.90;;;;;;5111649;28;20026;-34
2021/09/05 00:58:08;;;;;;;11.43;8.88;;;15.80;99.90;;;;;;5110470;28;20439;-35
2021/09/05 01:00:35;;;;;;;14.38;9.13;;;15.80;99.90;;;;;;5111902;28;20038;-37
2021/09/05 01:03:04;;;;;;;12.70;8.70;;;15.80;99.90;;;;;;5111370;28;20019;-37
2021/09/05 01:05:31;;;;;;;13.20;8.70;;;15.70;99.90;;;;;;5111559;28;20020;-37
2021/09/05 01:07:59;;;;;;;14.35;8.75;;;15.70;99.90;;;;;;5111348;28;20027;-36
2021/09/05 01:10:28;;;;;;;12.20;8.20;;;15.70;99.90;;;;;;5112529;28;20043;-38
2021/09/05 01:12:55;;;;;;;13.55;8.93;;;15.70;99.90;;;;;;5110071;28;20047;-39
2021/09/05 01:15:27;;;;;;;16.40;9.25;;;15.60;99.90;;;;;;5111306;28;20160;-35
2021/09/05 01:17:52;;;;;;;12.80;8.50;;;15.60;99.90;;;;;;5111601;28;20016;-33
2021/09/05 01:20:18;;;;;;;15.05;9.13;;;15.60;99.90;;;;;;5111097;28;20046;-36
2021/09/05 01:22:43;;;;;;;14.18;8.90;;;15.50;99.90;;;;;;5111384;28;20534;-39
2021/09/05 01:25:11;;;;;;;13.75;8.82;;;15.50;99.90;;;;;;5112073;28;20031;-37
2021/09/05 01:27:37;;;;;;;15.35;9.15;;;15.50;99.90;;;;;;5111102;28;20022;-33
2021/09/05 01:30:03;;;;;;;15.32;8.90;;;15.50;99.90;;;;;;5111437;28;20393;-36
2021/09/05 01:32:28;;;;;;;13.07;8.70;;;15.50;99.90;;;;;;5111938;28;20467;-37
2021/09/05 01:34:54;;;;;;;12.70;8.65;;;15.50;99.90;;;;;;5110782;28;20038;-38
2021/09/05 01:37:20;;;;;;;15.57;9.50;;;15.50;99.90;;;;;;5111477;28;20076;-38
2021/09/05 01:39:45;;;;;;;13.45;9.18;;;15.40;99.90;;;;;;5110506;28;20031;-38
2021/09/05 01:42:14;;;;;;;15.95;9.07;;;15.40;99.90;;;;;;5111725;28;20378;-39
2021/09/05 01:44:39;;;;;;;15.63;9.63;;;15.40;99.90;;;;;;5111372;28;20019;-39
2021/09/05 01:47:08;;;;;;;14.55;8.68;;;15.40;99.90;;;;;;5110520;28;20565;-39
2021/09/05 01:49:36;;;;;;;14.43;9.07;;;15.40;99.90;;;;;;5110923;28;20073;-39
2021/09/05 01:52:02;;;;;;;14.13;8.73;;;15.40;99.90;;;;;;5110819;28;20486;-36
2021/09/05 01:54:27;;;;;;;16.70;9.50;;;15.40;99.90;;;;;;5109745;28;20080;-36
2021/09/05 01:56:53;;;;;;;12.35;8.50;;;15.40;99.90;;;;;;5110715;28;20019;-37
2021/09/05 01:59:18;;;;;;;13.55;8.80;;;15.40;99.90;;;;;;5111305;28;20502;-38
2021/09/05 02:01:44;;;;;;;14.68;8.75;;;15.40;99.90;;;;;;5110399;28;20019;-38
2021/09/05 02:04:09;;;;;;;12.23;8.70;;;15.40;99.90;;;;;;5111033;28;20443;-36
2021/09/05 02:06:35;;;;;;;11.98;8.18;;;15.40;99.90;;;;;;5110995;28;20415;-34
2021/09/05 02:09:00;;;;;;;13.13;9.10;;;15.30;99.90;;;;;;5110228;28;20039;-37
2021/09/05 02:11:26;;;;;;;12.52;8.88;;;15.30;99.90;;;;;;5110516;28;20032;-39
2021/09/05 02:13:52;;;;;;;15.23;9.18;;;15.30;99.90;;;;;;5110848;28;20117;-39
2021/09/05 02:16:27;;;;;;;12.73;8.38;;;15.30;99.90;;;;;;5109963;28;20470;-38
2021/09/05 02:19:02;;;;;;;11.90;8.00;;;15.30;99.90;;;;;;5069649;28;20024;-39
2021/09/05 02:21:27;;;;;;;12.30;8.18;;;15.30;99.90;;;;;;5100677;28;20103;-37
2021/09/05 02:23:53;;;;;;;12.10;8.30;;;15.20;99.90;;;;;;5109932;28;20545;-36
2021/09/05 02:26:18;;;;;;;12.07;8.48;;;15.20;99.90;;;;;;5110679;28;20008;-35
2021/09/05 02:28:44;;;;;;;13.85;8.60;;;15.20;99.90;;;;;;5109855;28;20397;-35
2021/09/05 02:31:12;;;;;;;13.30;8.48;;;15.20;99.90;;;;;;5109725;28;20059;-36
2021/09/05 02:33:38;;;;;;;9.45;7.00;;;15.20;99.90;;;;;;5110429;28;20024;-36
2021/09/05 02:36:06;;;;;;;11.10;7.28;;;15.10;99.90;;;;;;5110336;28;20020;-40
2021/09/05 02:38:32;;;;;;;12.95;7.63;;;15.10;99.90;;;;;;5110837;28;20027;-37
2021/09/05 02:40:57;;;;;;;14.35;7.53;;;15.10;99.90;;;;;;5109595;28;20012;-39
2021/09/05 02:43:23;;;;;;;10.82;7.80;;;15.10;99.90;;;;;;5110268;28;20527;-38
2021/09/05 02:45:48;;;;;;;15.45;8.27;;;15.10;99.90;;;;;;5109765;28;21169;-37
2021/09/05 02:48:14;;;;;;;13.70;8.20;;;15.10;99.90;;;;;;5110386;28;20047;-38
2021/09/05 02:50:39;;;;;;;10.93;7.57;;;15.10;99.90;;;;;;5110170;28;20019;-38
2021/09/05 02:53:05;;;;;;;11.88;7.55;;;15.00;99.90;;;;;;5107246;28;20506;-39
2021/09/05 02:55:30;;;;;;;11.88;6.70;;;15.00;99.90;;;;;;5110562;28;20558;-39
2021/09/05 02:57:56;;;;;;;12.35;7.13;;;15.00;99.90;;;;;;5109148;28;20416;-36
2021/09/05 03:00:24;;;;;;;10.57;7.22;;;15.00;99.90;;;;;;5110869;28;20056;-39
2021/09/05 03:02:51;;;;;;;11.80;7.43;;;14.90;99.90;;;;;;5109359;28;20016;-39
2021/09/05 03:05:19;;;;;;;13.20;8.00;;;14.90;99.90;;;;;;5109990;28;20077;-36
2021/09/05 03:07:45;;;;;;;12.50;7.55;;;14.90;99.90;;;;;;5109799;28;20024;-39
2021/09/05 03:10:10;;;;;;;14.48;8.05;;;14.90;99.90;;;;;;5110085;28;20028;-37
2021/09/05 03:12:36;;;;;;;12.70;7.60;;;14.90;99.90;;;;;;5109817;28;20123;-36
2021/09/05 03:15:02;;;;;;;13.15;8.15;;;14.80;99.90;;;;;;5109752;28;20031;-34
2021/09/05 03:17:28;;;;;;;11.95;8.05;;;14.80;99.90;;;;;;5108858;28;20039;-37
2021/09/05 03:19:53;;;;;;;11.75;7.75;;;14.80;99.90;;;;;;5109587;28;20034;-33
2021/09/05 03:22:22;;;;;;;11.38;8.75;;;14.80;99.90;;;;;;5110040;28;20019;-35
2021/09/05 03:24:56;;;;;;;13.73;8.63;;;14.70;99.90;;;;;;5109663;28;20027;-36
2021/09/05 03:27:34;;;;;;;11.00;7.45;;;14.70;99.90;;;;;;5109958;28;20125;-36
2021/09/05 03:30:00;;;;;;;12.40;8.52;;;14.60;99.90;;;;;;5088047;28;20366;-36
2021/09/05 03:32:25;;;;;;;15.70;9.75;;;14.50;99.90;;;;;;5109813;28;20111;-37
2021/09/05 03:34:51;;;;;;;14.07;9.43;;;14.50;99.90;;;;;;5109867;28;20083;-36
2021/09/05 03:37:19;;;;;;;17.52;10.27;;;14.50;99.90;;;;;;5110118;28;20375;-35
2021/09/05 03:39:45;;;;;;;16.42;9.70;;;14.40;99.90;;;;;;5111637;28;20027;-36
2021/09/05 03:42:13;;;;;;;13.52;9.07;;;14.30;99.90;;;;;;5113701;28;20019;-38
2021/09/05 03:44:39;;;;;;;13.88;10.02;;;14.30;99.90;;;;;;5113462;28;20020;-35
2021/09/05 03:47:04;;;;;;;12.50;8.45;;;14.30;99.90;;;;;;5113169;28;20038;-39
2021/09/05 03:49:31;;;;;;;15.27;8.95;;;14.20;99.90;;;;;;5113500;28;20046;-38
2021/09/05 03:51:57;;;;;;;21.58;10.00;;;14.20;99.90;;;;;;5072839;28;20254;-33
2021/09/05 03:54:23;;;;;;;14.48;8.90;;;14.20;99.90;;;;;;5100693;28;20027;-36
2021/09/05 03:56:49;;;;;;;14.15;9.77;;;14.10;99.90;;;;;;5113127;28;20022;-33
2021/09/05 03:59:14;;;;;;;11.77;7.35;;;14.10;99.90;;;;;;5102149;28;20420;-37
2021/09/05 04:01:41;;;;;;;13.75;9.15;;;14.10;99.90;;;;;;5112814;28;20016;-36
2021/09/05 04:04:07;;;;;;;13.80;8.48;;;14.10;99.90;;;;;;5112859;28;20019;-37
2021/09/05 04:06:32;;;;;;;15.07;8.88;;;14.10;99.90;;;;;;5113704;28;20023;-38
2021/09/05 04:09:08;;;;;;;13.60;9.05;;;14.10;99.90;;;;;;5112135;28;20436;-36
2021/09/05 04:11:33;;;;;;;13.25;7.88;;;14.10;99.90;;;;;;5113588;28;20126;-38
2021/09/05 04:13:59;;;;;;;10.52;7.32;;;14.10;99.90;;;;;;5112370;28;20392;-37
2021/09/05 04:16:24;;;;;;;16.13;9.18;;;14.00;99.90;;;;;;5105837;28;20084;-34
2021/09/05 04:18:50;;;;;;;13.95;9.50;;;14.00;99.90;;;;;;5112084;28;20489;-36
2021/09/05 04:21:15;;;;;;;17.42;9.90;;;14.00;99.90;;;;;;5112526;28;20020;-34
2021/09/05 04:23:41;;;;;;;12.90;8.60;;;14.00;99.90;;;;;;5111999;28;20067;-36
2021/09/05 04:26:06;;;;;;;13.85;9.73;;;14.00;99.90;;;;;;5112095;28;20092;-37
2021/09/05 04:28:32;;;;;;;15.75;9.07;;;13.90;99.90;;;;;;5112112;28;20034;-33
2021/09/05 04:30:57;;;;;;;15.55;10.30;;;13.90;99.90;;;;;;5111375;28;20031;-38
2021/09/05 04:33:24;;;;;;;12.90;9.93;;;13.90;99.90;;;;;;5112618;28;20031;-38
2021/09/05 04:35:52;;;;;;;16.27;10.32;;;13.90;99.90;;;;;;5111083;28;20028;-36
2021/09/05 04:38:18;;;;;;;13.15;9.07;;;13.90;99.90;;;;;;5111931;28;20535;-36
2021/09/05 04:40:46;;;;;;;16.38;11.10;;;13.80;99.90;;;;;;5111847;28;20027;-36
2021/09/05 04:43:12;;;;;;;16.25;10.15;;;13.80;99.90;;;;;;5111537;28;20038;-36
2021/09/05 04:45:37;;;;;;;15.18;9.30;;;13.80;99.90;;;;;;5111795;28;20019;-38
2021/09/05 04:48:06;;;;;;;20.42;11.70;;;13.80;99.90;;;;;;5111964;28;20035;-35
2021/09/05 04:50:31;;;;;;;21.15;11.75;;;13.80;99.90;;;;;;5110352;28;20588;-37
2021/09/05 04:52:59;;;;;;;16.38;10.98;;;13.70;99.90;;;;;;5111327;28;20049;-35
2021/09/05 04:55:25;;;;;;;16.10;10.25;;;13.70;99.90;;;;;;5111737;28;20102;-39
2021/09/05 04:57:53;;;;;;;17.75;10.65;;;13.70;99.90;;;;;;5111039;28;20236;-36
2021/09/05 05:00:19;;;;;;;15.70;10.20;;;13.70;99.90;;;;;;5111891;28;20053;-35
2021/09/05 05:02:44;;;;;;;15.57;11.02;;;13.70;99.90;;;;;;5111606;28;20115;-36
2021/09/05 05:05:10;;;;;;;19.05;12.13;;;13.60;99.90;;;;;;5111439;28;20405;-40
2021/09/05 05:07:39;;;;;;;20.23;11.57;;;13.60;99.90;;;;;;5111210;28;20035;-36
2021/09/05 05:10:07;;;;;;;18.88;11.38;;;13.50;99.90;;;;;;5110674;28;20066;-36
2021/09/05 05:12:33;;;;;;;18.38;11.68;;;13.50;99.90;;;;;;5110926;28;20130;-35
2021/09/05 05:15:04;;;;;;;17.90;11.55;;;13.60;99.90;;;;;;5111187;28;20431;-39
2021/09/05 05:17:30;;;;;;;18.17;11.23;;;13.50;99.90;;;;;;5103132;28;20013;-36
2021/09/05 05:19:55;;;;;;;23.83;12.10;;;13.50;99.90;;;;;;5109803;28;20038;-37
2021/09/05 05:22:21;;;;;;;17.88;12.32;;;13.50;99.90;;;;;;5109077;28;20020;-35
2021/09/05 05:24:46;;;;;;;17.17;11.23;;;13.50;99.90;;;;;;5108578;28;20394;-36
2021/09/05 05:27:12;;;;;;;21.38;11.95;;;13.50;99.90;;;;;;5109360;28;20475;-37
2021/09/05 05:29:37;;;;;;;17.38;11.40;;;13.40;99.90;;;;;;5108304;28;20028;-39
2021/09/05 05:32:03;;;;;;;18.42;11.73;;;13.40;99.90;;;;;;5108300;28;20082;-36
2021/09/05 05:34:31;;;;;;;18.40;11.32;;;13.40;99.90;;;;;;5109601;28;20082;-34
2021/09/05 05:37:03;;;;;;;14.35;9.50;;;13.40;99.90;;;;;;5109845;28;20028;-38
2021/09/05 05:39:29;;;;;;;16.38;11.10;;;13.40;99.90;;;;;;5110659;28;20552;-35
2021/09/05 05:41:54;;;;;;;18.00;11.43;;;13.40;99.90;;;;;;5110505;28;20020;-37
2021/09/05 05:44:20;;;;;;;17.95;11.35;;;13.40;99.90;;;;;;5110853;28;20027;-39
2021/09/05 05:46:45;;;;;;;16.10;10.80;;;13.40;99.90;;;;;;5109682;28;20028;-36
2021/09/05 05:49:14;;;;;;;16.98;11.23;;;13.50;99.90;;;;;;5111312;28;20073;-36
2021/09/05 05:51:39;;;;;;;23.05;12.02;;;13.50;99.90;;;;;;5110754;28;20016;-36
2021/09/05 05:54:04;;;;;;;13.93;10.27;;;13.40;99.90;;;;;;5109932;28;20093;-36
2021/09/05 05:56:30;;;;;;;17.65;11.10;;;13.50;99.90;;;;;;5111146;28;20027;-33
2021/09/05 05:58:56;;;;;;;16.48;11.43;;;13.50;99.90;;;;;;5110139;28;20164;-37
2021/09/05 06:01:24;;;;;;;16.58;11.65;;;13.50;99.90;;;;;;5110644;28;20023;-37
2021/09/05 06:03:52;;;;;;;15.10;10.02;;;13.50;99.90;;;;;;5109824;28;20031;-37
2021/09/05 06:06:21;;;;;;;19.55;11.45;;;13.60;99.90;;;;;;5110948;28;20023;-37
2021/09/05 06:08:46;;;;;;;18.20;10.88;;;13.60;99.90;;;;;;5109238;28;20089;-37
2021/09/05 06:11:12;;;;;;;14.32;10.10;;;13.60;99.90;;;;;;5110603;28;20105;-36
2021/09/05 06:13:37;;;;;;;18.55;12.43;;;13.70;99.90;;;;;;5110050;28;20481;-37
2021/09/05 06:16:03;;;;;;;15.32;11.50;;;13.70;99.90;;;;;;5109796;28;20420;-36
2021/09/05 06:18:28;;;;;;;17.75;11.07;;;13.70;99.90;;;;;;5110087;28;20112;-34
2021/09/05 06:20:54;;;;;;;14.45;10.15;;;13.70;99.90;;;;;;5109798;28;20016;-38
2021/09/05 06:23:19;;;;;;;15.20;10.38;;;13.70;99.90;;;;;;5109698;28;20034;-39
2021/09/05 06:25:48;;;;;;;17.85;10.82;;;13.80;99.90;;;;;;5100806;28;20024;-32
2021/09/05 06:28:13;;;;;;;15.90;10.52;;;13.80;99.90;;;;;;5092529;28;20392;-35
2021/09/05 06:30:39;;;;;;;14.88;9.95;;;13.80;99.90;;;;;;5104981;28;20051;-37
2021/09/05 06:33:05;;;;;;;16.92;10.70;;;13.90;99.90;;;;;;5082174;28;20104;-38
2021/09/05 06:35:30;;;;;;;16.58;10.75;;;13.90;99.90;;;;;;5097680;28;20818;-34
2021/09/05 06:37:56;;;;;;;15.18;10.90;;;13.90;99.90;;;;;;5076610;28;20599;-43
2021/09/05 06:40:21;;;;;;;16.48;10.63;;;14.00;99.90;;;;;;5104780;28;20035;-35
2021/09/05 06:42:47;;;;;;;14.85;10.73;;;14.00;99.90;;;;;;5108502;28;20016;-35
2021/09/05 06:45:15;;;;;;;18.50;10.38;;;14.00;99.90;;;;;;5108958;28;20023;-35
2021/09/05 06:47:40;;;;;;;15.75;10.55;;;14.10;99.90;;;;;;5109247;28;20065;-36
2021/09/05 06:50:11;;;;;;;14.73;9.88;;;14.10;99.90;;;;;;5108193;28;20020;-34
2021/09/05 06:52:40;;;;;;;18.45;10.75;;;14.20;99.90;;;;;;5109470;28;20027;-35
2021/09/05 06:55:06;;;;;;;17.02;9.77;;;14.20;99.90;;;;;;5108318;28;20024;-38
2021/09/05 06:57:34;;;;;;;14.10;9.18;;;14.20;99.90;;;;;;5108541;28;20020;-37
2021/09/05 07:00:00;;;;;;;16.60;10.57;;;14.20;99.90;;;;;;5108526;28;20026;-40
2021/09/05 07:02:28;;;;;;;15.07;9.85;;;14.30;99.90;;;;;;5109258;28;20103;-38
2021/09/05 07:04:54;;;;;;;13.02;9.57;;;14.40;99.90;;;;;;5107846;28;20028;-38
2021/09/05 07:07:19;;;;;;;12.07;8.05;;;14.40;99.90;;;;;;5109469;28;20065;-41
2021/09/05 07:09:45;;;;;;;15.02;9.02;;;14.40;99.90;;;;;;5107675;28;20156;-37
2021/09/05 07:12:13;;;;;;;13.20;8.88;;;14.50;99.90;;;;;;5107611;28;20052;-39
2021/09/05 07:14:38;;;;;;;15.55;9.25;;;14.50;99.90;;;;;;5095168;28;20056;-35
2021/09/05 07:17:04;;;;;;;12.90;9.20;;;14.60;99.90;;;;;;5113796;28;20482;-38
2021/09/05 07:19:30;;;;;;;12.85;8.02;;;14.70;99.90;;;;;;5112087;28;20019;-36
2021/09/05 07:21:55;;;;;;;11.00;8.02;;;14.80;99.90;;;;;;5090777;28;20433;-38
2021/09/05 07:24:21;;;;;;;12.20;7.68;;;14.90;99.90;;;;;;5113074;28;20039;-40
2021/09/05 07:26:46;;;;;;;11.25;7.22;;;14.90;99.90;;;;;;5112962;28;20011;-41
2021/09/05 07:29:12;;;;;;;9.85;6.95;;;15.00;99.90;;;;;;5072782;28;20048;-38
2021/09/05 07:31:38;;;;;;;12.48;7.28;;;15.10;99.90;;;;;;5100161;28;20069;-39
2021/09/05 07:34:03;;;;;;;9.13;7.28;;;15.20;99.90;;;;;;5112789;28;20470;-39
2021/09/05 07:36:33;;;;;;;9.65;6.40;;;15.20;99.90;;;;;;5112643;28;20027;-37
2021/09/05 07:38:59;;;;;;;9.88;6.30;;;15.30;99.90;;;;;;5086811;28;20025;-41
2021/09/05 07:41:24;;;;;;;11.52;6.90;;;15.30;99.90;;;;;;5092198;28;20027;-45
2021/09/05 07:43:50;;;;;;;10.10;6.80;;;15.40;99.90;;;;;;5096190;28;20023;-36
2021/09/05 07:46:15;;;;;;;11.30;6.47;;;15.50;99.90;;;;;;5088556;28;20036;-39
2021/09/05 07:48:41;;;;;;;7.63;5.80;;;15.50;99.90;;;;;;5085621;28;20103;-41
2021/09/05 07:51:09;;;;;;;11.77;7.28;;;15.60;99.90;;;;;;5087145;28;20403;-42
2021/09/05 07:53:38;;;;;;;11.88;7.20;;;15.70;99.90;;;;;;5089792;28;20046;-39
2021/09/05 07:56:04;;;;;;;9.75;6.03;;;15.70;99.90;;;;;;5083627;28;20021;-38
2021/09/05 07:58:30;;;;;;;9.25;6.15;;;15.80;99.90;;;;;;5096487;28;20035;-43
2021/09/05 08:00:56;;;;;;;8.65;5.95;;;15.90;99.90;;;;;;5101379;28;20427;-42
2021/09/05 08:03:22;;;;;;;10.10;6.30;;;15.90;99.90;;;;;;5113471;28;20049;-38
2021/09/05 08:05:47;;;;;;;9.40;6.10;;;16.00;99.90;;;;;;5112238;28;20028;-38
2021/09/05 08:08:13;;;;;;;8.77;5.43;;;16.00;99.90;;;;;;5112700;28;20016;-42
2021/09/05 08:10:39;;;;;;;9.25;6.10;;;16.00;99.90;;;;;;5113319;28;20034;-43
2021/09/05 08:13:05;;;;;;;8.75;5.75;;;16.10;99.90;;;;;;5112951;28;20075;-43
2021/09/05 08:15:31;;;;;;;8.18;5.40;;;16.10;99.90;;;;;;5101699;28;20062;-41
2021/09/05 08:17:57;;;;;;;8.80;6.03;;;16.20;99.90;;;;;;5105137;28;20027;-37
2021/09/05 08:20:23;;;;;;;8.30;5.50;;;16.20;99.90;;;;;;5093160;28;20073;-38
2021/09/05 08:22:48;;;;;;;11.27;6.15;;;16.20;99.90;;;;;;5100675;28;20467;-34
2021/09/05 08:25:17;;;;;;;10.57;6.05;;;16.20;99.90;;;;;;5111797;28;20040;-37
2021/09/05 08:27:49;;;;;;;8.13;6.10;;;16.30;99.90;;;;;;5111841;28;20080;-34
2021/09/05 08:30:15;;;;;;;9.20;6.10;;;16.40;99.90;;;;;;5097376;28;20386;-36
2021/09/05 08:32:43;;;;;;;7.40;5.60;;;16.40;99.90;;;;;;5112284;28;20534;-36
2021/09/05 08:35:09;;;;;;;9.32;6.18;;;16.40;99.90;;;;;;5089963;28;20036;-37
2021/09/05 08:37:35;;;;;;;7.60;5.90;;;16.50;99.90;;;;;;5112729;28;20062;-35
2021/09/05 08:40:06;;;;;;;9.60;6.50;;;16.50;99.90;;;;;;5112443;28;20478;-34
2021/09/05 08:42:33;;;;;;;12.90;6.90;;;16.60;99.90;;;;;;5111463;28;20011;-36
2021/09/05 08:45:02;;;;;;;8.85;6.38;;;16.60;99.90;;;;;;5111681;28;20047;-37
2021/09/05 08:47:34;;;;;;;11.43;6.70;;;16.70;99.90;;;;;;5112287;28;20624;-35
2021/09/05 08:50:03;;;;;;;9.25;6.13;;;16.70;99.90;;;;;;5110084;28;20167;-35
2021/09/05 08:52:32;;;;;;;6.68;5.13;;;16.80;99.90;;;;;;5111643;28;20111;-36
2021/09/05 08:54:58;;;;;;;7.60;5.35;;;16.80;99.90;;;;;;5096235;28;20161;-37
2021/09/05 08:57:24;;;;;;;10.52;6.18;;;16.80;99.90;;;;;;5080158;28;20025;-38
2021/09/05 08:59:49;;;;;;;8.68;5.70;;;16.90;99.90;;;;;;5090676;28;20099;-38
2021/09/05 09:02:15;;;;;;;9.77;6.28;;;16.90;99.90;;;;;;5079146;28;20056;-36
2021/09/05 09:04:44;;;;;;;8.45;6.03;;;17.00;99.90;;;;;;5097570;28;20597;-38
2021/09/05 09:07:17;;;;;;;9.88;6.07;;;17.00;99.90;;;;;;5111051;28;20027;-35
2021/09/05 09:09:56;;;;;;;7.95;5.82;;;17.10;99.90;;;;;;5101592;28;20034;-39
2021/09/05 09:12:40;;;;;;;7.05;5.28;;;17.10;99.90;;;;;;5111253;28;20039;-38
2021/09/05 09:15:30;;;;;;;8.98;5.93;;;17.20;99.90;;;;;;5098279;28;20069;-35
2021/09/05 09:18:04;;;;;;;7.13;5.40;;;17.20;99.90;;;;;;5069754;28;20360;-36
2021/09/05 09:20:39;;;;;;;10.95;6.85;;;17.30;99.90;;;;;;5103023;28;20069;-36
2021/09/05 09:23:11;;;;;;;8.02;5.97;;;17.30;99.90;;;;;;5070482;28;20531;-36
2021/09/05 09:25:37;;;;;;;10.70;6.63;;;17.40;99.90;;;;;;5100738;28;20521;-37
2021/09/05 09:28:39;;;;;;;8.95;6.55;;;17.50;99.90;;;;;;5110794;28;20077;-38
2021/09/05 09:31:25;;;;;;;11.23;6.93;;;17.60;99.90;;;;;;5110660;28;20088;-38
2021/09/05 09:33:59;;;;;;;7.82;5.93;;;17.70;99.90;;;;;;5109195;28;20051;-32
2021/09/05 09:36:27;;;;;;;8.95;6.47;;;17.80;99.90;;;;;;5110104;28;20047;-37
2021/09/05 09:39:07;;;;;;;8.90;6.07;;;17.80;99.90;;;;;;5110896;28;20455;-35
2021/09/05 09:41:39;;;;;;;9.80;7.05;;;17.90;99.90;;;;;;5111347;28;20477;-36
2021/09/05 09:44:13;;;;;;;10.50;7.03;;;17.90;99.90;;;;;;5111044;28;20549;-37
2021/09/05 09:46:40;;;;;;;10.13;7.05;;;17.90;99.90;;;;;;5110248;28;20654;-38
2021/09/05 09:49:11;;;;;;;11.75;6.88;;;18.00;99.90;;;;;;5110631;28;20467;-33
2021/09/05 09:51:38;;;;;;;9.38;5.90;;;18.00;99.90;;;;;;5110969;28;20027;-35
2021/09/05 09:54:03;;;;;;;9.13;6.70;;;18.00;99.90;;;;;;5069885;28;20071;-38
2021/09/05 09:56:29;;;;;;;9.45;5.80;;;18.00;99.90;;;;;;5095874;28;20055;-39
2021/09/05 09:59:01;;;;;;;10.70;6.25;;;18.10;99.90;;;;;;5086208;28;20028;-37
2021/09/05 10:01:28;;;;;;;;;;;18.20;99.90;;;;;;5088399;28;20023;-38
2021/09/05 10:03:55;;;;;;;9.95;6.97;;;18.20;99.90;;;;;;5102358;28;20265;-39
2021/09/05 10:06:30;;;;;;;9.55;6.53;;;18.30;99.90;;;;;;5110336;28;20081;-39
2021/09/05 10:09:00;;;;;;;9.95;6.82;;;18.30;99.90;;;;;;5094166;28;20071;-38
2021/09/05 10:11:26;;;;;;;8.30;5.72;;;18.30;99.90;;;;;;5100062;28;20031;-36
2021/09/05 10:13:53;;;;;;;7.70;5.47;;;18.40;99.90;;;;;;5109488;28;20466;-35
2021/09/05 10:16:24;;;;;;;9.38;5.85;;;18.50;99.80;;;;;;5106595;28;20479;-39
2021/09/05 10:18:53;;;;;;;9.32;5.90;;;18.50;99.90;;;;;;5088103;28;20063;-37
2021/09/05 10:21:21;;;;;;;9.88;6.68;;;18.50;99.80;;;;;;5090620;28;20028;-36
2021/09/05 10:23:55;;;;;;;8.13;6.00;;;18.60;99.50;;;;;;5096985;28;20045;-39
2021/09/05 10:26:22;;;;;;;10.75;6.22;;;18.70;99.40;;;;;;5109702;28;20015;-37
2021/09/05 10:28:59;;;;;;;10.40;6.22;;;18.70;99.20;;;;;;5109294;28;20031;-38
2021/09/05 10:31:36;;;;;;;9.85;6.80;;;18.80;99.10;;;;;;5105426;28;20023;-36
2021/09/05 10:34:02;;;;;;;8.57;5.72;;;18.80;98.90;;;;;;5082458;28;20533;-37
2021/09/05 10:36:28;;;;;;;9.43;6.32;;;18.90;98.90;;;;;;5083299;28;20039;-36
2021/09/05 10:39:08;;;;;;;9.77;6.03;;;18.90;98.70;;;;;;5098096;28;20020;-37
2021/09/05 10:41:50;;;;;;;10.50;6.90;;;19.00;98.60;;;;;;5081108;28;20075;-33
2021/09/05 10:44:19;;;;;;;9.93;5.88;;;19.00;98.50;;;;;;5088117;28;20012;-39
2021/09/05 10:46:51;;;;;;;9.90;6.70;;;19.10;98.50;;;;;;5109888;28;20050;-35
2021/09/05 10:49:35;;;;;;;8.00;5.88;;;19.10;98.50;;;;;;5108806;28;20016;-39
2021/09/05 10:52:01;;;;;;;8.90;5.63;;;19.20;98.40;;;;;;5109347;28;20474;-33
2021/09/05 10:54:28;;;;;;;7.07;5.38;;;19.20;98.10;;;;;;5110614;28;20110;-33
2021/09/05 10:56:58;;;;;;;6.30;5.05;;;19.30;98.20;;;;;;5108410;28;20463;-36
2021/09/05 10:59:25;;;;;;;9.02;6.15;;;19.30;98.30;;;;;;5108127;28;20103;-36
2021/09/05 11:01:53;;;;;;;7.60;5.70;;;19.30;98.20;;;;;;5109524;28;20016;-38
2021/09/05 11:04:27;;;;;;;9.02;5.68;;;19.40;98.20;;;;;;5107037;28;20065;-38
2021/09/05 11:06:58;;;;;;;7.10;6.00;;;19.40;98.10;;;;;;5088748;28;20635;-38
2021/09/05 11:09:23;;;;;;;9.63;6.15;;;19.50;98.00;;;;;;5107457;28;20053;-40
2021/09/05 11:11:57;;;;;;;8.38;6.47;;;19.50;97.80;;;;;;5088625;28;20044;-39
2021/09/05 11:14:35;;;;;;;7.72;6.10;;;19.60;97.80;;;;;;5086834;28;20028;-41
2021/09/05 11:17:15;;;;;;;8.70;5.40;;;19.60;97.80;;;;;;5088869;28;20085;-43
2021/09/05 11:19:49;;;;;;;9.38;5.82;;;19.70;97.60;;;;;;5107434;28;20077;-41
2021/09/05 11:22:19;;;;;;;8.35;5.90;;;19.80;96.90;;;;;;5110229;28;20056;-40
2021/09/05 11:24:46;;;;;;;7.35;5.53;;;19.80;96.80;;;;;;5101812;28;20112;-40
2021/09/05 11:27:14;;;;;;;10.38;6.25;;;19.90;96.80;;;;;;5070063;28;20013;-43
2021/09/05 11:29:40;;;;;;;8.00;5.93;;;20.00;96.80;;;;;;5098508;28;20032;-42
2021/09/05 11:32:11;;;;;;;8.88;6.00;;;20.00;96.70;;;;;;5099319;28;20035;-37
2021/09/05 11:34:50;;;;;;;8.03;5.77;;;20.00;96.60;;;;;;5095430;28;20482;-42
2021/09/05 11:37:29;;;;;;;8.88;5.80;;;20.10;96.40;;;;;;5090718;28;20048;-38
2021/09/05 11:39:55;;;;;;;7.00;5.78;;;20.10;96.40;;;;;;5102062;28;20046;-38
2021/09/05 11:42:21;;;;;;;8.18;5.70;;;20.20;96.40;;;;;;5109288;28;20024;-40
2021/09/05 11:44:46;;;;;;;7.50;5.38;;;20.20;96.30;;;;;;5108578;28;20024;-41
2021/09/05 11:47:13;;;;;;;9.30;6.15;;;20.30;96.20;;;;;;5110215;28;20023;-43
2021/09/05 11:49:51;;;;;;;8.02;6.13;;;20.30;96.20;;;;;;5109325;28;20087;-37
2021/09/05 11:52:22;;;;;;;8.27;5.85;;;20.40;96.10;;;;;;5109256;28;20089;-40
2021/09/05 11:55:05;;;;;;;7.97;5.25;;;20.40;96.00;;;;;;5108650;28;20443;-32
2021/09/05 11:57:32;;;;;;;7.22;5.40;;;20.30;96.00;;;;;;5082475;28;20032;-37
2021/09/05 12:00:00;;;;;;;7.57;5.75;;;20.40;96.10;;;;;;5087510;28;20482;-37
2021/09/05 12:02:50;;;;;;;10.10;6.45;;;20.40;96.10;;;;;;5086639;28;20016;-38
2021/09/05 12:05:19;;;;;;;9.43;6.25;;;20.50;95.70;;;;;;5093848;28;20078;-39
2021/09/05 12:07:45;;;;;;;7.57;5.93;;;20.50;95.30;;;;;;5110688;28;20020;-39
2021/09/05 12:10:14;;;;;;;9.00;5.72;;;20.60;95.20;;;;;;5110793;28;20012;-40
2021/09/05 12:12:41;;;;;;;8.18;5.68;;;20.70;95.00;;;;;;5110316;28;20514;-45
2021/09/05 12:15:19;;;;;;;7.30;5.95;;;20.70;95.00;;;;;;5110189;28;20088;-44
2021/09/05 12:17:52;;;;;;;7.32;5.40;;;20.80;94.90;;;;;;5091978;28;20028;-42
2021/09/05 12:20:22;;;;;;;9.70;6.32;;;20.80;94.90;;;;;;5110531;28;20095;-39
2021/09/05 12:22:49;;;;;;;8.73;6.13;;;20.80;94.20;;;;;;5112370;28;20145;-45
2021/09/05 12:25:21;;;;;;;7.10;5.90;;;20.90;94.20;;;;;;5112921;28;20065;-45
2021/09/05 12:28:18;;;;;;;7.30;5.75;;;21.00;94.20;;;;;;5111900;28;20106;-42
2021/09/05 12:30:52;;;;;;;7.30;5.70;;;21.00;94.20;;;;;;5111461;28;20028;-43
2021/09/05 12:33:20;;;;;;;8.57;5.90;;;21.00;94.10;;;;;;5112512;28;20070;-39
2021/09/05 12:35:48;;;;;;;9.45;5.85;;;21.10;94.10;;;;;;5111739;28;20064;-42
2021/09/05 12:38:30;;;;;;;9.40;6.25;;;21.10;93.90;;;;;;5090053;28;20096;-43
2021/09/05 12:41:08;;;;;;;8.48;6.22;;;21.20;93.30;;;;;;5111348;28;20020;-46
2021/09/05 12:43:57;;;;;;;7.32;5.70;;;21.30;93.20;;;;;;5092527;28;20475;-42